Time;durP1;ratioP1;P1;durP2;ratioP2;P2;SDS_P1;SDS_P2;PMS_P1;PMS_P2;Temp;Humidity;BMP_temperature;BMP_pressure;BME280_temperature;BME280_humidity;BME280_pressure;Samples;Min_cycle;Max_cycle;Signal;HPM_P1;HPM_P2
2021/07/27 00:01:53;;;;;;;12.43;4.80;;;26.40;96.70;;;;;;4908896;29;20098;-71
2021/07/27 00:04:21;;;;;;;10.95;4.90;;;26.40;96.70;;;;;;4907047;29;20112;-70
2021/07/27 00:06:49;;;;;;;9.27;4.43;;;26.50;96.70;;;;;;4922502;29;20044;-70
2021/07/27 00:09:17;;;;;;;10.50;5.32;;;26.40;96.70;;;;;;4907267;29;20064;-70
2021/07/27 00:11:45;;;;;;;11.63;4.75;;;26.50;96.70;;;;;;4908456;29;20095;-70
2021/07/27 00:14:13;;;;;;;13.63;5.82;;;26.50;96.70;;;;;;4908469;29;20056;-71
2021/07/27 00:16:43;;;;;;;15.45;5.50;;;26.50;96.70;;;;;;4907589;29;20037;-70
2021/07/27 00:19:11;;;;;;;10.13;4.60;;;26.50;96.70;;;;;;4906452;29;20122;-70
2021/07/27 00:21:39;;;;;;;10.13;4.70;;;26.40;96.70;;;;;;4906571;29;20503;-70
2021/07/27 00:24:07;;;;;;;10.18;4.97;;;26.40;96.70;;;;;;4921814;28;20036;-71
2021/07/27 00:26:36;;;;;;;13.32;5.53;;;26.40;96.70;;;;;;4907513;29;20071;-70
2021/07/27 00:29:04;;;;;;;11.77;5.30;;;26.40;96.70;;;;;;4906273;29;20044;-70
2021/07/27 00:31:32;;;;;;;13.98;5.38;;;26.40;96.70;;;;;;4905618;29;20055;-70
2021/07/27 00:34:01;;;;;;;10.15;5.05;;;26.40;96.70;;;;;;4907507;29;20383;-70
2021/07/27 00:36:29;;;;;;;11.75;4.78;;;26.40;96.70;;;;;;4891147;29;20058;-70
2021/07/27 00:38:57;;;;;;;13.23;5.18;;;26.40;96.70;;;;;;4906041;29;20040;-70
2021/07/27 00:41:25;;;;;;;10.25;4.63;;;26.50;96.70;;;;;;4922486;29;20391;-70
2021/07/27 00:43:53;;;;;;;13.43;4.78;;;26.50;96.70;;;;;;4906574;29;20044;-69
2021/07/27 00:46:21;;;;;;;13.25;4.15;;;26.50;96.70;;;;;;4907291;29;20125;-70
2021/07/27 00:48:50;;;;;;;16.85;5.55;;;26.40;96.70;;;;;;4937476;28;20136;-70
2021/07/27 00:51:20;;;;;;;15.07;5.20;;;26.30;96.70;;;;;;4889788;29;20156;-71
2021/07/27 00:57:16;;;;;;;11.68;5.20;;;26.40;96.70;;;;;;4907804;29;20047;-70
2021/07/27 00:59:45;;;;;;;9.93;5.10;;;26.30;96.70;;;;;;4908578;29;20542;-71
2021/07/27 01:02:16;;;;;;;10.48;5.00;;;26.30;96.70;;;;;;4937684;28;20048;-70
2021/07/27 01:04:46;;;;;;;11.88;4.53;;;26.20;96.70;;;;;;4908147;29;20079;-71
2021/07/27 01:07:18;;;;;;;13.02;5.00;;;26.20;96.70;;;;;;4921953;29;20043;-70
2021/07/27 01:09:52;;;;;;;13.25;5.05;;;26.20;96.70;;;;;;4909401;29;20052;-70
2021/07/27 01:12:21;;;;;;;11.57;4.95;;;26.10;96.70;;;;;;4903754;29;20533;-71
2021/07/27 01:14:50;;;;;;;10.32;5.50;;;26.10;96.70;;;;;;4905978;29;20052;-70
2021/07/27 01:17:20;;;;;;;9.98;4.97;;;26.00;96.70;;;;;;4921815;29;20059;-70
2021/07/27 01:19:58;;;;;;;10.32;4.63;;;26.00;96.70;;;;;;4906190;29;20051;-70
2021/07/27 01:37:55;;;;;;;9.25;4.55;;;25.90;96.70;;;;;;4899888;29;20048;-70
2021/07/27 01:40:27;;;;;;;13.98;5.60;;;25.80;96.70;;;;;;4897823;29;20765;-70
2021/07/27 01:42:56;;;;;;;11.25;4.90;;;25.60;96.70;;;;;;4897400;29;20096;-70
2021/07/27 01:45:24;;;;;;;11.52;4.75;;;25.50;96.70;;;;;;4907521;29;20115;-70
2021/07/27 01:47:53;;;;;;;11.52;5.35;;;25.40;96.70;;;;;;4921630;29;20104;-71
2021/07/27 01:50:22;;;;;;;10.18;5.35;;;25.40;96.70;;;;;;4906709;29;20071;-70
2021/07/27 01:52:58;;;;;;;12.52;4.55;;;25.40;96.70;;;;;;4907936;29;20524;-70
2021/07/27 01:55:32;;;;;;;9.98;4.85;;;25.40;96.70;;;;;;4908575;29;20078;-70
2021/07/27 02:01:43;;;;;;;15.27;5.15;;;25.50;96.70;;;;;;4905989;29;20410;-70
2021/07/27 02:04:24;;;;;;;8.57;4.60;;;25.50;96.70;;;;;;4906695;29;20686;-70
2021/07/27 02:06:52;;;;;;;13.63;5.13;;;25.50;96.70;;;;;;4925046;29;20042;-70
2021/07/27 02:09:45;;;;;;;8.23;4.95;;;25.60;96.70;;;;;;4906014;29;20047;-71
2021/07/27 02:12:19;;;;;;;9.10;4.60;;;25.50;96.70;;;;;;4909610;29;20572;-71
2021/07/27 02:15:15;;;;;;;8.35;4.57;;;25.50;96.70;;;;;;4905740;29;20036;-70
2021/07/27 02:17:45;;;;;;;7.85;4.35;;;25.50;96.70;;;;;;4936889;28;20060;-71
2021/07/27 02:20:22;;;;;;;11.55;5.75;;;25.50;96.70;;;;;;4905085;29;20135;-70
2021/07/27 02:22:50;;;;;;;12.45;5.28;;;25.40;96.70;;;;;;4906474;29;20143;-71
2021/07/27 02:25:35;;;;;;;11.23;5.43;;;25.40;96.70;;;;;;4902402;29;20040;-71
2021/07/27 02:28:04;;;;;;;13.60;5.80;;;25.30;96.70;;;;;;4911541;29;20058;-71
2021/07/27 02:30:34;;;;;;;9.70;5.07;;;25.20;96.70;;;;;;4908088;29;20525;-70
2021/07/27 02:33:02;;;;;;;9.82;4.45;;;25.10;96.70;;;;;;4931572;28;20438;-70
2021/07/27 02:35:49;;;;;;;10.80;5.25;;;25.10;96.70;;;;;;4914055;29;20048;-71
2021/07/27 02:38:18;;;;;;;8.15;5.00;;;25.00;96.70;;;;;;4903888;29;20076;-70
2021/07/27 02:41:09;;;;;;;7.28;4.57;;;25.00;96.70;;;;;;4943289;28;20047;-70
2021/07/27 02:43:37;;;;;;;8.40;4.63;;;25.00;96.70;;;;;;4911241;29;20048;-70
2021/07/27 02:46:28;;;;;;;7.90;4.63;;;25.00;96.70;;;;;;4904994;29;20490;-70
2021/07/27 02:49:03;;;;;;;12.27;5.20;;;25.00;96.70;;;;;;4890507;29;20068;-71
2021/07/27 02:51:32;;;;;;;9.90;4.50;;;25.00;96.70;;;;;;4906507;29;20060;-70
2021/07/27 02:54:02;;;;;;;7.97;4.90;;;25.00;96.70;;;;;;4890098;29;20080;-71
2021/07/27 02:56:33;;;;;;;11.40;5.20;;;25.00;96.70;;;;;;4892470;29;20317;-70
2021/07/27 02:59:02;;;;;;;8.60;4.68;;;25.00;96.70;;;;;;4889918;29;20056;-70
2021/07/27 03:01:31;;;;;;;8.13;4.43;;;25.10;96.70;;;;;;4891367;29;20057;-71
2021/07/27 03:04:01;;;;;;;9.65;4.40;;;25.10;96.70;;;;;;4891926;29;20041;-71
2021/07/27 03:12:46;;;;;;;8.48;4.40;;;25.10;96.70;;;;;;4889777;29;20423;-70
2021/07/27 03:15:16;;;;;;;9.98;5.35;;;25.20;96.70;;;;;;4892399;29;20388;-71
2021/07/27 03:17:44;;;;;;;8.85;4.18;;;25.20;96.70;;;;;;4889881;29;20123;-70
2021/07/27 03:20:15;;;;;;;9.18;4.68;;;25.20;96.70;;;;;;4891761;29;20135;-71
2021/07/27 03:22:43;;;;;;;8.15;4.25;;;25.20;96.70;;;;;;4893361;29;20068;-70
2021/07/27 03:25:16;;;;;;;8.40;4.43;;;25.20;96.70;;;;;;4908431;29;20036;-70
2021/07/27 03:27:46;;;;;;;8.55;4.65;;;25.20;96.70;;;;;;4903357;29;20171;-70
2021/07/27 03:30:19;;;;;;;10.95;4.95;;;25.20;96.70;;;;;;4888074;29;20044;-70
2021/07/27 03:32:49;;;;;;;6.75;5.15;;;25.20;96.70;;;;;;4888656;29;20525;-70
2021/07/27 03:35:18;;;;;;;17.75;7.07;;;25.20;96.70;;;;;;4890708;29;20032;-70
2021/07/27 03:37:47;;;;;;;10.60;5.03;;;25.30;96.70;;;;;;4888684;29;20044;-71
2021/07/27 03:40:17;;;;;;;13.80;5.38;;;25.10;96.70;;;;;;4888984;29;20067;-71
2021/07/27 03:42:48;;;;;;;9.82;4.95;;;25.00;96.70;;;;;;4902771;29;20071;-71
2021/07/27 03:45:18;;;;;;;7.93;5.22;;;25.00;96.70;;;;;;4890772;29;20518;-71
2021/07/27 03:47:47;;;;;;;12.18;4.60;;;25.00;96.70;;;;;;4899926;29;20051;-71
2021/07/27 03:50:16;;;;;;;11.23;5.40;;;25.00;96.70;;;;;;4909563;29;20108;-71
2021/07/27 03:52:46;;;;;;;11.02;5.32;;;25.00;96.70;;;;;;4910172;29;20107;-71
2021/07/27 03:55:16;;;;;;;10.30;5.15;;;24.90;96.70;;;;;;4908018;29;20044;-70
2021/07/27 03:57:44;;;;;;;11.65;6.03;;;24.80;96.70;;;;;;4910124;29;20048;-70
2021/07/27 04:00:14;;;;;;;10.07;5.40;;;24.80;96.70;;;;;;4907956;29;20037;-71
2021/07/27 04:02:42;;;;;;;10.90;5.38;;;24.80;96.70;;;;;;4908882;29;20155;-70
2021/07/27 04:05:10;;;;;;;11.95;5.50;;;24.70;96.70;;;;;;4908778;29;20036;-71
2021/07/27 04:07:39;;;;;;;9.25;5.60;;;24.70;96.70;;;;;;4920962;29;20148;-71
2021/07/27 04:10:08;;;;;;;8.90;5.65;;;24.70;96.70;;;;;;4892260;29;20048;-70
2021/07/27 04:12:39;;;;;;;7.22;4.68;;;24.70;96.70;;;;;;4910031;29;20107;-70
2021/07/27 04:15:08;;;;;;;7.78;5.13;;;24.70;96.70;;;;;;4940017;28;20044;-70
2021/07/27 04:21:26;;;;;;;9.82;4.95;;;24.70;96.70;;;;;;4907614;29;20413;-70
2021/07/27 04:24:09;;;;;;;8.88;4.47;;;24.70;96.70;;;;;;4903343;29;20115;-70
2021/07/27 04:26:37;;;;;;;10.20;5.40;;;24.70;96.70;;;;;;4910367;29;20083;-70
2021/07/27 04:29:27;;;;;;;7.78;5.25;;;24.70;96.70;;;;;;4906190;29;20506;-70
2021/07/27 04:31:55;;;;;;;9.05;4.78;;;24.80;96.70;;;;;;4910481;29;20422;-70
2021/07/27 04:34:23;;;;;;;8.82;5.50;;;24.70;96.70;;;;;;4920023;28;20372;-70
2021/07/27 04:36:53;;;;;;;8.38;5.25;;;24.70;96.70;;;;;;4920227;28;20047;-70
2021/07/27 04:39:21;;;;;;;10.07;5.35;;;24.70;96.70;;;;;;4919711;29;20411;-70
2021/07/27 04:41:49;;;;;;;10.13;4.72;;;24.70;96.70;;;;;;4909992;29;20044;-70
2021/07/27 04:44:17;;;;;;;7.93;4.82;;;24.70;96.70;;;;;;4907463;29;20461;-70
2021/07/27 04:46:47;;;;;;;9.93;5.03;;;24.70;96.70;;;;;;4909113;29;20529;-70
2021/07/27 04:49:15;;;;;;;8.45;5.15;;;24.70;96.70;;;;;;4906483;29;21054;-70
2021/07/27 04:51:44;;;;;;;10.02;5.30;;;24.70;96.70;;;;;;4909142;29;20040;-70
2021/07/27 04:54:16;;;;;;;7.28;5.18;;;24.70;96.70;;;;;;4907859;29;20040;-70
2021/07/27 04:56:44;;;;;;;9.45;5.28;;;24.70;96.70;;;;;;4918408;29;20044;-70
2021/07/27 04:59:12;;;;;;;9.85;5.18;;;24.70;96.70;;;;;;4906357;29;20080;-70
2021/07/27 05:01:40;;;;;;;8.88;4.93;;;24.80;96.70;;;;;;4922137;29;20392;-70
2021/07/27 05:04:08;;;;;;;11.73;5.30;;;24.80;96.70;;;;;;4906802;29;20542;-70
2021/07/27 05:06:38;;;;;;;8.95;4.80;;;24.80;96.70;;;;;;4908300;29;20048;-70
2021/07/27 05:09:06;;;;;;;8.90;5.00;;;24.80;96.70;;;;;;4904132;29;20040;-71
2021/07/27 05:11:36;;;;;;;9.27;5.10;;;24.80;96.70;;;;;;4912728;29;20040;-71
2021/07/27 05:14:05;;;;;;;7.60;5.05;;;24.80;96.70;;;;;;4906471;29;20036;-70
2021/07/27 05:16:38;;;;;;;10.70;5.68;;;24.90;96.70;;;;;;4907997;29;20514;-73
2021/07/27 05:19:21;;;;;;;8.07;4.95;;;24.90;96.70;;;;;;4938645;29;20036;-73
2021/07/27 05:21:52;;;;;;;9.27;5.75;;;24.90;96.70;;;;;;4906156;29;20391;-73
2021/07/27 05:24:22;;;;;;;7.95;5.10;;;24.80;96.70;;;;;;4909718;29;20055;-73
2021/07/27 05:26:51;;;;;;;10.05;5.07;;;24.90;96.70;;;;;;4904813;29;20510;-73
2021/07/27 05:29:19;;;;;;;10.40;5.55;;;24.90;96.70;;;;;;4901186;29;20048;-73
2021/07/27 05:31:47;;;;;;;11.82;5.50;;;24.90;96.70;;;;;;4905531;29;20123;-74
2021/07/27 05:34:16;;;;;;;9.35;4.88;;;25.00;96.70;;;;;;4938345;28;20408;-74
2021/07/27 05:36:44;;;;;;;8.73;5.22;;;25.00;96.70;;;;;;4935185;29;20056;-74
2021/07/27 05:39:13;;;;;;;13.23;5.68;;;25.00;96.70;;;;;;4908932;29;20083;-74
2021/07/27 05:41:41;;;;;;;11.88;6.18;;;25.10;96.70;;;;;;4902783;29;20055;-74
2021/07/27 05:44:11;;;;;;;8.55;5.45;;;25.10;96.70;;;;;;4906826;29;20055;-74
2021/07/27 05:46:39;;;;;;;10.32;6.20;;;25.20;96.70;;;;;;4919236;28;20534;-74
2021/07/27 05:49:10;;;;;;;9.35;5.68;;;25.20;96.70;;;;;;4908858;29;20048;-74
2021/07/27 05:51:39;;;;;;;12.32;5.90;;;25.30;96.70;;;;;;4904979;29;20036;-74
2021/07/27 05:54:08;;;;;;;8.52;5.00;;;25.30;96.70;;;;;;4907413;29;20040;-74
2021/07/27 05:56:36;;;;;;;9.30;5.22;;;25.30;96.70;;;;;;4918645;28;20514;-74
2021/07/27 05:59:04;;;;;;;9.27;5.25;;;25.50;96.70;;;;;;4890868;29;20054;-75
2021/07/27 06:01:33;;;;;;;8.77;5.05;;;25.50;96.70;;;;;;4906077;29;20146;-72
2021/07/27 06:04:02;;;;;;;9.55;4.85;;;25.50;96.70;;;;;;4903495;29;20048;-73
2021/07/27 06:06:31;;;;;;;7.97;5.22;;;25.60;96.70;;;;;;4919461;28;20056;-73
2021/07/27 06:09:00;;;;;;;8.60;4.75;;;25.70;96.70;;;;;;4908967;29;20058;-73
2021/07/27 06:11:29;;;;;;;8.55;5.75;;;25.80;96.70;;;;;;4905317;29;20099;-73
2021/07/27 06:13:57;;;;;;;10.32;5.28;;;26.00;96.70;;;;;;4921016;29;20527;-73
2021/07/27 06:16:25;;;;;;;5.97;5.18;;;26.10;96.70;;;;;;4902938;29;20310;-73
2021/07/27 06:18:55;;;;;;;9.73;4.80;;;26.20;96.70;;;;;;4911305;29;20049;-73
2021/07/27 06:21:23;;;;;;;10.60;5.65;;;26.30;96.70;;;;;;4905839;29;20048;-73
2021/07/27 06:23:51;;;;;;;11.15;5.60;;;26.30;96.70;;;;;;4907186;29;20086;-72
2021/07/27 06:26:19;;;;;;;11.45;5.38;;;26.40;96.70;;;;;;4906325;29;20123;-71
2021/07/27 06:28:47;;;;;;;7.90;4.43;;;26.40;96.70;;;;;;4920446;28;20052;-71
2021/07/27 06:31:15;;;;;;;7.00;3.67;;;26.40;96.70;;;;;;4918964;29;20518;-71
2021/07/27 06:33:45;;;;;;;6.25;4.00;;;26.40;96.70;;;;;;4900163;29;20127;-71
2021/07/27 06:36:14;;;;;;;7.18;3.70;;;26.50;96.70;;;;;;4906946;29;20544;-71
2021/07/27 06:38:43;;;;;;;8.90;4.25;;;26.50;96.70;;;;;;4904500;29;20262;-72
2021/07/27 06:41:12;;;;;;;7.35;4.28;;;26.50;96.70;;;;;;4890372;29;20075;-71
2021/07/27 06:43:41;;;;;;;5.95;4.00;;;26.60;96.70;;;;;;4901268;29;20124;-71
2021/07/27 06:46:10;;;;;;;6.72;3.92;;;26.60;96.70;;;;;;4907248;29;20557;-71
2021/07/27 06:48:39;;;;;;;7.93;4.72;;;26.60;96.70;;;;;;4901079;29;20464;-71
2021/07/27 06:51:11;;;;;;;7.32;4.00;;;26.70;96.70;;;;;;4907538;29;20597;-71
2021/07/27 06:53:41;;;;;;;8.45;4.45;;;26.80;96.70;;;;;;4902783;29;20115;-72
2021/07/27 06:56:11;;;;;;;4.97;3.50;;;26.80;96.70;;;;;;4907015;29;20044;-72
2021/07/27 06:58:40;;;;;;;10.00;3.78;;;26.80;96.70;;;;;;4905578;29;20055;-71
2021/07/27 07:01:09;;;;;;;7.68;4.45;;;26.90;96.70;;;;;;4907075;29;20048;-71
2021/07/27 07:03:39;;;;;;;8.40;4.05;;;27.00;96.70;;;;;;4900594;29;20147;-71
2021/07/27 07:06:07;;;;;;;8.05;4.68;;;27.10;96.70;;;;;;4908171;29;20139;-71
2021/07/27 07:08:36;;;;;;;7.20;4.25;;;27.20;96.70;;;;;;4917060;28;20668;-71
2021/07/27 07:11:06;;;;;;;7.88;4.43;;;27.20;96.70;;;;;;4920283;29;20052;-71
2021/07/27 07:13:34;;;;;;;7.45;4.47;;;27.30;96.70;;;;;;4891752;29;21195;-71
2021/07/27 07:16:07;;;;;;;9.95;4.30;;;27.40;96.70;;;;;;4911816;29;20051;-71
2021/07/27 07:18:36;;;;;;;7.88;4.10;;;27.50;96.70;;;;;;4909129;29;20050;-72
2021/07/27 07:21:05;;;;;;;5.63;4.40;;;27.60;96.70;;;;;;4940989;28;20044;-71
2021/07/27 07:23:33;;;;;;;7.55;3.88;;;27.60;96.70;;;;;;4919225;29;20047;-71
2021/07/27 07:26:04;;;;;;;6.80;4.10;;;27.60;96.70;;;;;;4916452;29;20933;-72
2021/07/27 07:28:34;;;;;;;8.90;4.13;;;27.70;96.70;;;;;;4921054;29;20152;-71
2021/07/27 07:31:03;;;;;;;5.82;4.00;;;27.90;96.70;;;;;;4939294;28;20051;-71
2021/07/27 07:33:31;;;;;;;7.10;4.07;;;28.00;96.70;;;;;;4910324;29;20128;-72
2021/07/27 07:35:59;;;;;;;8.60;4.70;;;28.20;96.70;;;;;;4908128;29;20064;-71
2021/07/27 07:38:27;;;;;;;9.93;4.70;;;28.20;96.70;;;;;;4910899;29;20626;-72
2021/07/27 07:40:55;;;;;;;6.82;4.30;;;28.10;96.70;;;;;;4925456;29;20075;-72
2021/07/27 07:43:23;;;;;;;8.43;4.50;;;28.10;96.70;;;;;;4924608;29;20354;-72
2021/07/27 07:45:53;;;;;;;9.10;4.80;;;28.10;96.70;;;;;;4924328;28;20143;-72
2021/07/27 07:48:22;;;;;;;7.68;3.95;;;28.10;96.70;;;;;;4908950;29;20052;-71
2021/07/27 07:50:50;;;;;;;8.85;4.50;;;28.00;96.70;;;;;;4905882;29;20053;-72
2021/07/27 07:53:18;;;;;;;8.27;4.32;;;28.00;96.70;;;;;;4924598;28;20075;-71
2021/07/27 07:55:46;;;;;;;11.23;4.53;;;28.00;96.70;;;;;;4908392;29;20080;-71
2021/07/27 07:58:14;;;;;;;8.38;4.65;;;28.00;96.70;;;;;;4922337;29;20064;-71
2021/07/27 08:00:42;;;;;;;5.82;3.65;;;28.10;96.70;;;;;;4908906;29;20462;-71
2021/07/27 08:03:12;;;;;;;7.15;3.90;;;28.10;96.70;;;;;;4911499;29;20502;-71
2021/07/27 08:05:40;;;;;;;6.97;3.90;;;28.00;96.70;;;;;;4907569;29;20055;-72
2021/07/27 08:08:08;;;;;;;7.20;3.92;;;28.00;96.70;;;;;;4894922;29;20458;-71
2021/07/27 08:10:36;;;;;;;6.28;3.70;;;28.00;96.70;;;;;;4909504;29;20151;-71
2021/07/27 08:13:04;;;;;;;6.43;3.78;;;28.20;96.70;;;;;;4910049;29;20064;-72
2021/07/27 08:15:32;;;;;;;7.40;3.67;;;28.30;96.70;;;;;;4907340;29;20058;-73
2021/07/27 08:18:00;;;;;;;5.50;3.55;;;28.40;96.70;;;;;;4911371;29;20047;-72
2021/07/27 08:20:30;;;;;;;7.30;3.67;;;28.60;96.70;;;;;;4908201;29;20418;-73
2021/07/27 08:22:59;;;;;;;6.55;3.40;;;28.60;96.70;;;;;;4908652;29;20044;-72
2021/07/27 08:25:27;;;;;;;7.28;4.00;;;28.70;96.70;;;;;;4905472;29;20414;-72
2021/07/27 08:27:55;;;;;;;5.88;3.70;;;28.90;95.90;;;;;;4909713;29;20048;-73
2021/07/27 08:30:24;;;;;;;5.35;4.10;;;28.90;96.00;;;;;;4909226;29;20043;-71
2021/07/27 08:32:53;;;;;;;6.55;3.80;;;29.00;96.30;;;;;;4908181;29;20827;-71
2021/07/27 08:35:23;;;;;;;5.20;3.53;;;29.00;96.00;;;;;;4906420;29;20123;-71
2021/07/27 08:37:53;;;;;;;6.68;3.95;;;29.00;96.60;;;;;;4920228;29;20495;-72
2021/07/27 08:40:22;;;;;;;5.18;3.72;;;29.10;96.70;;;;;;4906639;29;20394;-71
2021/07/27 08:42:51;;;;;;;6.75;3.75;;;29.20;96.30;;;;;;4910780;29;20044;-71
2021/07/27 08:45:19;;;;;;;5.65;3.28;;;29.10;96.00;;;;;;4908173;29;20048;-72
2021/07/27 08:47:48;;;;;;;7.55;3.72;;;28.90;96.00;;;;;;4908231;29;20052;-72
2021/07/27 08:50:17;;;;;;;5.75;3.88;;;28.80;96.70;;;;;;4906908;29;20255;-70
2021/07/27 08:52:46;;;;;;;10.80;3.83;;;28.80;96.70;;;;;;4922371;29;20055;-69
2021/07/27 08:55:16;;;;;;;7.70;3.60;;;28.80;96.70;;;;;;4907539;29;20055;-69
2021/07/27 08:57:52;;;;;;;7.53;3.88;;;28.80;96.70;;;;;;4922338;28;20608;-70
2021/07/27 09:00:20;;;;;;;5.88;3.80;;;28.80;96.70;;;;;;4910249;29;20067;-70
2021/07/27 09:02:48;;;;;;;6.28;3.63;;;28.80;96.70;;;;;;4922206;28;20072;-70
2021/07/27 09:05:17;;;;;;;10.50;3.95;;;28.80;96.70;;;;;;4907053;29;20045;-70
2021/07/27 09:07:45;;;;;;;4.15;3.10;;;28.90;96.70;;;;;;4906626;29;20521;-70
2021/07/27 09:10:20;;;;;;;5.65;3.70;;;29.00;96.70;;;;;;4909810;29;20044;-69
2021/07/27 09:12:56;;;;;;;7.90;4.50;;;29.10;96.70;;;;;;4901123;29;20079;-70
2021/07/27 09:15:26;;;;;;;7.22;4.03;;;29.10;96.70;;;;;;4909501;29;20048;-72
2021/07/27 09:17:55;;;;;;;5.22;3.72;;;29.30;96.70;;;;;;4917421;28;20075;-72
2021/07/27 09:20:29;;;;;;;6.55;3.50;;;29.50;96.70;;;;;;4919931;29;20494;-71
2021/07/27 09:22:58;;;;;;;7.03;3.88;;;29.80;96.00;;;;;;4900496;29;20441;-71
2021/07/27 09:25:28;;;;;;;7.72;3.83;;;29.80;95.80;;;;;;4908198;29;20067;-69
2021/07/27 09:28:14;;;;;;;7.57;3.95;;;29.80;96.20;;;;;;4897847;29;20447;-70
2021/07/27 09:30:46;;;;;;;7.22;3.88;;;29.80;95.90;;;;;;4920879;29;20416;-70
2021/07/27 09:33:16;;;;;;;8.77;4.22;;;29.80;96.40;;;;;;4906906;29;20044;-70
2021/07/27 09:35:45;;;;;;;9.23;4.13;;;29.70;95.90;;;;;;4909336;29;20044;-70
2021/07/27 09:38:15;;;;;;;7.90;4.72;;;29.70;96.00;;;;;;4916670;29;20059;-70
2021/07/27 09:40:53;;;;;;;12.18;5.68;;;29.80;96.70;;;;;;4906183;29;20044;-70
2021/07/27 09:43:42;;;;;;;11.15;5.38;;;29.80;95.10;;;;;;4900301;29;20048;-69
2021/07/27 09:46:11;;;;;;;9.55;5.32;;;29.90;94.90;;;;;;4905305;29;20052;-70
2021/07/27 09:48:41;;;;;;;7.35;3.88;;;30.20;94.80;;;;;;4906987;29;20052;-68
2021/07/27 09:51:11;;;;;;;8.02;3.45;;;30.50;94.50;;;;;;4904809;29;20050;-70
2021/07/27 09:53:42;;;;;;;8.25;4.03;;;30.80;93.90;;;;;;4905886;29;20451;-70
2021/07/27 09:56:12;;;;;;;5.07;3.40;;;31.00;93.40;;;;;;4905472;29;20115;-71
2021/07/27 09:58:40;;;;;;;8.60;3.70;;;31.10;93.60;;;;;;4906813;29;20079;-71
2021/07/27 10:01:11;;;;;;;10.93;4.07;;;31.10;91.80;;;;;;4918473;28;20083;-72
2021/07/27 10:03:49;;;;;;;8.80;4.25;;;30.90;92.40;;;;;;4938574;28;20404;-72
2021/07/27 10:06:24;;;;;;;8.40;4.05;;;30.80;92.90;;;;;;4905149;29;20510;-72
2021/07/27 10:08:56;;;;;;;10.23;4.07;;;30.70;93.60;;;;;;4920693;29;20075;-72
2021/07/27 10:11:37;;;;;;;6.45;3.83;;;30.50;94.20;;;;;;4903920;29;20078;-72
2021/07/27 10:14:08;;;;;;;5.78;3.83;;;30.40;94.20;;;;;;4922012;29;20127;-71
2021/07/27 10:16:36;;;;;;;6.43;3.83;;;30.40;94.20;;;;;;4903593;29;20063;-71
2021/07/27 10:19:12;;;;;;;6.80;4.10;;;30.40;94.40;;;;;;4906856;29;20136;-71
2021/07/27 10:21:41;;;;;;;10.45;4.10;;;30.30;95.10;;;;;;4900925;29;20526;-72
2021/07/27 10:24:14;;;;;;;6.70;3.90;;;30.30;95.20;;;;;;4903293;29;20044;-71
2021/07/27 10:26:44;;;;;;;7.70;4.50;;;30.40;95.50;;;;;;4934822;28;20371;-70
2021/07/27 10:29:13;;;;;;;6.95;3.78;;;30.50;96.00;;;;;;4906814;29;20139;-72
2021/07/27 10:31:42;;;;;;;10.65;4.60;;;30.50;96.40;;;;;;4907641;29;20040;-72
2021/07/27 10:34:11;;;;;;;6.88;3.53;;;30.50;96.10;;;;;;4906413;29;20047;-73
2021/07/27 10:36:41;;;;;;;9.05;3.95;;;30.50;96.00;;;;;;4918756;29;20032;-71
2021/07/27 10:39:11;;;;;;;6.35;3.97;;;30.80;95.80;;;;;;4905046;29;20488;-72
2021/07/27 10:41:41;;;;;;;9.65;3.88;;;30.80;95.40;;;;;;4901204;29;20048;-72
2021/07/27 10:44:13;;;;;;;10.73;4.10;;;30.90;95.90;;;;;;4906520;29;20486;-72
2021/07/27 10:46:43;;;;;;;7.72;3.75;;;30.90;94.90;;;;;;4921982;29;20044;-72
2021/07/27 10:49:17;;;;;;;9.02;4.78;;;31.00;94.60;;;;;;4906227;29;20396;-73
2021/07/27 10:51:46;;;;;;;6.85;4.00;;;31.10;94.60;;;;;;4908918;29;20711;-71
2021/07/27 10:54:16;;;;;;;7.68;3.78;;;31.00;95.00;;;;;;4909504;29;20044;-71
2021/07/27 10:56:57;;;;;;;8.65;3.78;;;31.20;94.70;;;;;;4910745;29;20445;-71
2021/07/27 10:59:31;;;;;;;8.18;4.55;;;31.40;93.60;;;;;;4893161;29;20119;-71
2021/07/27 11:02:00;;;;;;;10.18;4.15;;;31.40;93.50;;;;;;4910648;29;20044;-71
2021/07/27 11:04:30;;;;;;;11.95;4.03;;;31.50;93.80;;;;;;4907066;29;20047;-70
2021/07/27 11:07:09;;;;;;;6.65;3.90;;;31.50;93.70;;;;;;4940116;28;20055;-70
2021/07/27 11:09:51;;;;;;;10.43;4.88;;;31.70;93.80;;;;;;4909197;29;20033;-70
2021/07/27 11:12:27;;;;;;;7.45;4.20;;;31.60;93.20;;;;;;4909340;29;20167;-70
2021/07/27 11:15:10;;;;;;;9.18;4.25;;;31.50;93.50;;;;;;4909267;29;20040;-70
2021/07/27 11:17:42;;;;;;;8.48;3.92;;;31.50;93.10;;;;;;4923935;28;20084;-70
2021/07/27 11:20:13;;;;;;;8.75;4.57;;;31.60;93.30;;;;;;4910769;29;20044;-69
2021/07/27 11:22:44;;;;;;;7.03;4.05;;;31.80;92.80;;;;;;4908644;29;20058;-70
2021/07/27 11:25:16;;;;;;;8.98;4.00;;;31.80;92.90;;;;;;4941261;28;20124;-70
2021/07/27 11:27:45;;;;;;;7.40;4.43;;;31.70;92.50;;;;;;4937845;29;20079;-69
2021/07/27 11:30:17;;;;;;;6.72;4.13;;;31.80;92.60;;;;;;4916468;29;20084;-69
2021/07/27 11:32:46;;;;;;;11.52;4.32;;;31.70;92.60;;;;;;4905145;29;20507;-69
2021/07/27 11:35:16;;;;;;;10.50;4.50;;;31.60;93.30;;;;;;4909157;29;20052;-69
2021/07/27 11:37:45;;;;;;;8.23;4.25;;;31.60;93.10;;;;;;4906475;29;20040;-70
2021/07/27 11:40:23;;;;;;;9.00;4.80;;;31.70;92.60;;;;;;4908536;29;20443;-69
2021/07/27 11:43:06;;;;;;;8.73;4.63;;;31.90;92.30;;;;;;4909574;29;20589;-70
2021/07/27 11:45:37;;;;;;;8.57;4.18;;;32.10;91.40;;;;;;4908611;29;20040;-69
2021/07/27 11:48:06;;;;;;;10.70;4.97;;;32.30;91.20;;;;;;4908487;29;20052;-71
2021/07/27 11:50:38;;;;;;;7.03;3.78;;;32.40;91.10;;;;;;4907901;29;20043;-70
2021/07/27 11:53:08;;;;;;;9.70;4.10;;;32.50;91.10;;;;;;4918030;29;20107;-69
2021/07/27 11:55:38;;;;;;;11.07;4.55;;;32.70;90.70;;;;;;4908172;29;20047;-69
2021/07/27 11:58:07;;;;;;;7.70;4.43;;;32.80;89.50;;;;;;4910069;29;20040;-69
2021/07/27 12:00:37;;;;;;;11.82;4.60;;;32.80;90.10;;;;;;4909241;29;20048;-70
2021/07/27 12:03:06;;;;;;;10.60;4.70;;;33.00;89.70;;;;;;4922053;29;20470;-69
2021/07/27 12:05:34;;;;;;;13.10;4.75;;;33.10;89.60;;;;;;4907592;29;20338;-70
2021/07/27 12:08:03;;;;;;;14.85;4.55;;;33.00;89.90;;;;;;4910323;29;20064;-70
2021/07/27 12:10:31;;;;;;;7.28;4.43;;;33.10;90.50;;;;;;4919950;28;20056;-69
2021/07/27 12:12:59;;;;;;;7.32;4.57;;;33.20;89.20;;;;;;4910196;29;20593;-70
2021/07/27 12:15:28;;;;;;;8.45;4.30;;;33.30;89.10;;;;;;4908677;29;20465;-70
2021/07/27 12:17:58;;;;;;;7.63;4.35;;;33.30;88.60;;;;;;4906263;29;20518;-69
2021/07/27 12:20:33;;;;;;;9.40;4.90;;;33.40;89.70;;;;;;4908086;29;20110;-70
2021/07/27 12:23:01;;;;;;;9.25;4.30;;;33.50;89.30;;;;;;4909883;29;20438;-70
2021/07/27 12:25:32;;;;;;;8.18;4.72;;;33.60;88.80;;;;;;4908365;29;20051;-70
2021/07/27 12:28:00;;;;;;;8.68;4.53;;;33.70;88.40;;;;;;4908553;29;20118;-71
2021/07/27 12:30:29;;;;;;;9.80;4.25;;;33.60;88.40;;;;;;4905280;29;20115;-71
2021/07/27 12:32:59;;;;;;;6.57;3.72;;;33.50;88.30;;;;;;4907804;29;20050;-72
2021/07/27 12:35:27;;;;;;;8.23;4.30;;;33.50;88.00;;;;;;4916204;29;20054;-71
2021/07/27 12:37:56;;;;;;;9.95;4.10;;;33.50;87.30;;;;;;4923009;29;20056;-71
2021/07/27 12:40:24;;;;;;;7.93;3.95;;;33.40;87.30;;;;;;4903974;29;20047;-70
2021/07/27 12:42:52;;;;;;;8.55;4.20;;;33.40;87.00;;;;;;4919919;28;20052;-72
2021/07/27 12:45:20;;;;;;;13.52;4.55;;;33.60;86.50;;;;;;4906660;29;20434;-72
2021/07/27 12:47:48;;;;;;;8.15;4.03;;;33.60;86.70;;;;;;4905495;29;20066;-72
2021/07/27 12:50:18;;;;;;;9.98;4.60;;;33.70;86.30;;;;;;4908316;29;20080;-69
2021/07/27 12:52:46;;;;;;;7.78;4.53;;;33.80;85.90;;;;;;4908908;29;20614;-70
2021/07/27 12:55:15;;;;;;;9.80;4.13;;;33.90;87.40;;;;;;4906234;29;20417;-69
2021/07/27 12:57:43;;;;;;;6.97;4.10;;;34.10;85.30;;;;;;4934367;28;20063;-70
2021/07/27 13:00:11;;;;;;;8.63;4.38;;;34.00;86.30;;;;;;4904689;29;20052;-71
2021/07/27 13:02:40;;;;;;;9.77;4.15;;;34.20;85.40;;;;;;4908926;29;20521;-72
2021/07/27 13:05:09;;;;;;;9.93;4.75;;;34.20;85.10;;;;;;4921345;28;20095;-72
2021/07/27 13:07:38;;;;;;;9.27;4.60;;;34.20;85.10;;;;;;4906959;29;20215;-72
2021/07/27 13:10:08;;;;;;;7.85;4.47;;;34.30;85.50;;;;;;4905032;29;20048;-72
2021/07/27 13:12:36;;;;;;;10.88;4.60;;;34.30;84.10;;;;;;4905708;29;20056;-72
2021/07/27 13:15:06;;;;;;;11.73;4.70;;;34.30;83.70;;;;;;4906103;29;20127;-72
2021/07/27 13:17:34;;;;;;;6.88;3.75;;;34.50;84.60;;;;;;4906106;29;20049;-71
2021/07/27 13:20:03;;;;;;;12.32;4.30;;;34.20;84.00;;;;;;4922524;29;20048;-71
2021/07/27 13:22:32;;;;;;;5.97;3.75;;;34.30;83.20;;;;;;4907775;29;20055;-72
2021/07/27 13:25:02;;;;;;;8.18;3.90;;;34.70;82.00;;;;;;4921349;29;20048;-71
2021/07/27 13:27:30;;;;;;;8.07;4.05;;;35.00;80.80;;;;;;4901015;29;20109;-71
2021/07/27 13:29:58;;;;;;;7.97;3.95;;;35.00;80.90;;;;;;4891546;29;20036;-71
2021/07/27 13:32:26;;;;;;;10.77;5.10;;;35.20;80.90;;;;;;4922173;28;20729;-72